Guatimozin, Argentina
Current Conditions -  °F | °C
As of 12:00 PM on Saturday 25 Oct 2014 (Local Time) from SAAR Reporting Station
Broken Clouds Broken Clouds  
Wind Chill: 82°   Ceiling: 7000
Heat Index: 84°   Visibility: 6mi
Dew Point: 64°   Wind: 6mph
Humidity: 54%   Direction: 90°E
Pressure: 29.91"   Gusts: NA
Location:  33.45°S, 62.45°W
Report Text: SAAR 251500Z 09005KT 9999 FEW035 SCT060BKN070 28/18 Q1013
Loading
Personal Weather Stations






























Interactive Weather Map
Tropical Storm Tracking
New forecast layout! Learn more

10-Day Weather Forecast

Advertisements
Track Severe Weather on mobile